sensor_id;sensor_type;location;lat;lon;timestamp;P1;durP1;ratioP1;P2;durP2;ratioP2
5225;SDS011;2632;51.666;7.146;2022-11-24T00:01:01;1.03;;;0.73;;
5225;SDS011;2632;51.666;7.146;2022-11-24T00:03:33;3.03;;;1.03;;
5225;SDS011;2632;51.666;7.146;2022-11-24T00:06:03;1.33;;;0.90;;
5225;SDS011;2632;51.666;7.146;2022-11-24T00:08:32;1.50;;;0.80;;
5225;SDS011;2632;51.666;7.146;2022-11-24T00:11:07;2.53;;;0.77;;
5225;SDS011;2632;51.666;7.146;2022-11-24T00:13:38;1.17;;;0.70;;
5225;SDS011;2632;51.666;7.146;2022-11-24T00:16:06;1.33;;;0.83;;
5225;SDS011;2632;51.666;7.146;2022-11-24T00:18:33;2.07;;;0.70;;
5225;SDS011;2632;51.666;7.146;2022-11-24T00:21:00;3.80;;;0.90;;
5225;SDS011;2632;51.666;7.146;2022-11-24T00:23:26;2.27;;;0.83;;
5225;SDS011;2632;51.666;7.146;2022-11-24T00:25:53;1.70;;;0.80;;
5225;SDS011;2632;51.666;7.146;2022-11-24T00:28:20;1.73;;;1.00;;
5225;SDS011;2632;51.666;7.146;2022-11-24T00:30:46;0.93;;;0.70;;
5225;SDS011;2632;51.666;7.146;2022-11-24T00:33:13;3.10;;;0.70;;
5225;SDS011;2632;51.666;7.146;2022-11-24T00:35:39;0.90;;;0.70;;
5225;SDS011;2632;51.666;7.146;2022-11-24T00:38:06;1.03;;;0.60;;
5225;SDS011;2632;51.666;7.146;2022-11-24T00:40:33;1.10;;;0.77;;
5225;SDS011;2632;51.666;7.146;2022-11-24T00:43:00;2.10;;;1.03;;
5225;SDS011;2632;51.666;7.146;2022-11-24T00:45:27;7.00;;;1.17;;
5225;SDS011;2632;51.666;7.146;2022-11-24T00:47:53;2.17;;;1.10;;
5225;SDS011;2632;51.666;7.146;2022-11-24T00:50:20;10.10;;;1.13;;
5225;SDS011;2632;51.666;7.146;2022-11-24T00:52:46;4.47;;;0.70;;
5225;SDS011;2632;51.666;7.146;2022-11-24T00:55:13;5.23;;;1.00;;
5225;SDS011;2632;51.666;7.146;2022-11-24T00:57:40;1.63;;;1.00;;
5225;SDS011;2632;51.666;7.146;2022-11-24T01:00:10;1.17;;;0.60;;
5225;SDS011;2632;51.666;7.146;2022-11-24T01:02:38;1.63;;;0.70;;
5225;SDS011;2632;51.666;7.146;2022-11-24T01:05:05;2.20;;;0.80;;
5225;SDS011;2632;51.666;7.146;2022-11-24T01:07:32;1.77;;;0.80;;
5225;SDS011;2632;51.666;7.146;2022-11-24T01:09:59;2.47;;;1.30;;
5225;SDS011;2632;51.666;7.146;2022-11-24T01:12:26;4.70;;;0.70;;
5225;SDS011;2632;51.666;7.146;2022-11-24T01:14:52;2.00;;;0.73;;
5225;SDS011;2632;51.666;7.146;2022-11-24T01:17:19;1.87;;;0.80;;
5225;SDS011;2632;51.666;7.146;2022-11-24T01:19:46;1.67;;;0.70;;
5225;SDS011;2632;51.666;7.146;2022-11-24T01:22:14;2.10;;;0.83;;
5225;SDS011;2632;51.666;7.146;2022-11-24T01:24:40;2.40;;;0.80;;
5225;SDS011;2632;51.666;7.146;2022-11-24T01:27:07;3.83;;;0.70;;
5225;SDS011;2632;51.666;7.146;2022-11-24T01:29:34;4.73;;;1.20;;
5225;SDS011;2632;51.666;7.146;2022-11-24T01:32:01;1.53;;;0.83;;
5225;SDS011;2632;51.666;7.146;2022-11-24T01:34:27;1.57;;;0.70;;
5225;SDS011;2632;51.666;7.146;2022-11-24T01:36:54;2.53;;;0.80;;
5225;SDS011;2632;51.666;7.146;2022-11-24T01:39:21;2.20;;;0.90;;
5225;SDS011;2632;51.666;7.146;2022-11-24T01:41:47;1.10;;;0.60;;
5225;SDS011;2632;51.666;7.146;2022-11-24T01:44:24;3.60;;;1.20;;
5225;SDS011;2632;51.666;7.146;2022-11-24T01:46:59;2.90;;;0.90;;
5225;SDS011;2632;51.666;7.146;2022-11-24T01:49:48;3.00;;;0.70;;
5225;SDS011;2632;51.666;7.146;2022-11-24T01:52:21;3.17;;;1.20;;
5225;SDS011;2632;51.666;7.146;2022-11-24T01:55:00;2.13;;;0.80;;
5225;SDS011;2632;51.666;7.146;2022-11-24T01:57:32;1.57;;;0.90;;
5225;SDS011;2632;51.666;7.146;2022-11-24T02:00:11;1.60;;;0.77;;
5225;SDS011;2632;51.666;7.146;2022-11-24T02:02:39;1.20;;;0.60;;
5225;SDS011;2632;51.666;7.146;2022-11-24T02:05:09;2.50;;;1.10;;
5225;SDS011;2632;51.666;7.146;2022-11-24T02:07:43;1.23;;;0.67;;
5225;SDS011;2632;51.666;7.146;2022-11-24T02:10:12;1.90;;;0.80;;
5225;SDS011;2632;51.666;7.146;2022-11-24T02:12:43;7.23;;;1.20;;
5225;SDS011;2632;51.666;7.146;2022-11-24T02:15:13;2.20;;;0.90;;
5225;SDS011;2632;51.666;7.146;2022-11-24T02:17:41;3.80;;;1.47;;
5225;SDS011;2632;51.666;7.146;2022-11-24T02:20:07;2.20;;;0.80;;
5225;SDS011;2632;51.666;7.146;2022-11-24T02:22:39;4.93;;;1.10;;
5225;SDS011;2632;51.666;7.146;2022-11-24T02:28:01;1.03;;;0.80;;
5225;SDS011;2632;51.666;7.146;2022-11-24T02:30:32;2.40;;;1.00;;
5225;SDS011;2632;51.666;7.146;2022-11-24T02:33:00;2.17;;;0.73;;
5225;SDS011;2632;51.666;7.146;2022-11-24T02:35:27;5.63;;;0.90;;
5225;SDS011;2632;51.666;7.146;2022-11-24T02:37:54;1.23;;;0.90;;
5225;SDS011;2632;51.666;7.146;2022-11-24T02:40:21;1.47;;;0.90;;
5225;SDS011;2632;51.666;7.146;2022-11-24T02:42:51;1.93;;;0.73;;
5225;SDS011;2632;51.666;7.146;2022-11-24T02:45:20;3.43;;;1.13;;
5225;SDS011;2632;51.666;7.146;2022-11-24T02:47:47;2.10;;;0.60;;
5225;SDS011;2632;51.666;7.146;2022-11-24T02:50:14;1.43;;;1.00;;
5225;SDS011;2632;51.666;7.146;2022-11-24T02:52:41;1.30;;;0.77;;
5225;SDS011;2632;51.666;7.146;2022-11-24T02:55:08;2.70;;;1.10;;
5225;SDS011;2632;51.666;7.146;2022-11-24T02:57:34;1.10;;;0.83;;
5225;SDS011;2632;51.666;7.146;2022-11-24T03:00:01;3.60;;;1.00;;
5225;SDS011;2632;51.666;7.146;2022-11-24T03:02:29;3.67;;;0.67;;
5225;SDS011;2632;51.666;7.146;2022-11-24T03:04:55;0.87;;;0.60;;
5225;SDS011;2632;51.666;7.146;2022-11-24T03:07:22;1.13;;;0.67;;
5225;SDS011;2632;51.666;7.146;2022-11-24T03:09:49;1.70;;;0.70;;
5225;SDS011;2632;51.666;7.146;2022-11-24T03:12:15;1.37;;;0.67;;
5225;SDS011;2632;51.666;7.146;2022-11-24T03:14:42;1.73;;;1.10;;
5225;SDS011;2632;51.666;7.146;2022-11-24T03:17:08;5.37;;;1.50;;
5225;SDS011;2632;51.666;7.146;2022-11-24T03:19:35;1.10;;;0.70;;
5225;SDS011;2632;51.666;7.146;2022-11-24T03:22:02;3.77;;;0.97;;
5225;SDS011;2632;51.666;7.146;2022-11-24T03:24:28;1.70;;;0.83;;
5225;SDS011;2632;51.666;7.146;2022-11-24T03:26:55;2.20;;;0.60;;
5225;SDS011;2632;51.666;7.146;2022-11-24T03:29:21;1.83;;;0.60;;
5225;SDS011;2632;51.666;7.146;2022-11-24T03:31:48;1.77;;;0.70;;
5225;SDS011;2632;51.666;7.146;2022-11-24T03:34:15;1.60;;;0.60;;
5225;SDS011;2632;51.666;7.146;2022-11-24T03:36:41;2.40;;;0.90;;
5225;SDS011;2632;51.666;7.146;2022-11-24T03:39:08;4.23;;;0.90;;
5225;SDS011;2632;51.666;7.146;2022-11-24T03:41:35;0.83;;;0.77;;
5225;SDS011;2632;51.666;7.146;2022-11-24T03:44:03;3.10;;;1.30;;
5225;SDS011;2632;51.666;7.146;2022-11-24T03:46:30;2.27;;;0.90;;
5225;SDS011;2632;51.666;7.146;2022-11-24T03:48:57;3.77;;;0.90;;
5225;SDS011;2632;51.666;7.146;2022-11-24T03:51:24;0.77;;;0.50;;
5225;SDS011;2632;51.666;7.146;2022-11-24T03:53:50;1.67;;;1.03;;
5225;SDS011;2632;51.666;7.146;2022-11-24T03:56:17;2.10;;;0.80;;
5225;SDS011;2632;51.666;7.146;2022-11-24T03:58:44;2.50;;;0.63;;
5225;SDS011;2632;51.666;7.146;2022-11-24T04:01:10;2.53;;;0.90;;
5225;SDS011;2632;51.666;7.146;2022-11-24T04:03:37;4.00;;;1.10;;
5225;SDS011;2632;51.666;7.146;2022-11-24T04:06:04;2.30;;;0.77;;
5225;SDS011;2632;51.666;7.146;2022-11-24T04:08:30;1.87;;;0.93;;
5225;SDS011;2632;51.666;7.146;2022-11-24T04:10:57;0.93;;;0.60;;
5225;SDS011;2632;51.666;7.146;2022-11-24T04:13:24;1.90;;;1.10;;
5225;SDS011;2632;51.666;7.146;2022-11-24T04:15:51;2.90;;;0.87;;
5225;SDS011;2632;51.666;7.146;2022-11-24T04:18:18;3.17;;;0.73;;
5225;SDS011;2632;51.666;7.146;2022-11-24T04:20:47;2.60;;;0.60;;
5225;SDS011;2632;51.666;7.146;2022-11-24T04:23:16;1.00;;;0.93;;
5225;SDS011;2632;51.666;7.146;2022-11-24T04:25:43;2.57;;;0.77;;
5225;SDS011;2632;51.666;7.146;2022-11-24T04:28:09;1.67;;;0.80;;
5225;SDS011;2632;51.666;7.146;2022-11-24T04:30:36;1.63;;;0.80;;
5225;SDS011;2632;51.666;7.146;2022-11-24T04:33:03;5.67;;;0.83;;
5225;SDS011;2632;51.666;7.146;2022-11-24T04:35:30;2.07;;;0.70;;
5225;SDS011;2632;51.666;7.146;2022-11-24T04:37:56;0.93;;;0.60;;
5225;SDS011;2632;51.666;7.146;2022-11-24T04:40:27;1.00;;;0.70;;
5225;SDS011;2632;51.666;7.146;2022-11-24T04:42:54;3.07;;;1.00;;
5225;SDS011;2632;51.666;7.146;2022-11-24T04:45:21;3.13;;;0.73;;
5225;SDS011;2632;51.666;7.146;2022-11-24T04:47:48;1.07;;;0.60;;
5225;SDS011;2632;51.666;7.146;2022-11-24T04:50:15;1.20;;;0.70;;
5225;SDS011;2632;51.666;7.146;2022-11-24T04:52:42;1.23;;;0.70;;
5225;SDS011;2632;51.666;7.146;2022-11-24T04:55:09;2.30;;;0.90;;
5225;SDS011;2632;51.666;7.146;2022-11-24T04:57:36;4.67;;;0.77;;
5225;SDS011;2632;51.666;7.146;2022-11-24T05:00:03;3.13;;;1.00;;
5225;SDS011;2632;51.666;7.146;2022-11-24T05:02:30;4.00;;;0.80;;
5225;SDS011;2632;51.666;7.146;2022-11-24T05:04:56;2.63;;;0.70;;
5225;SDS011;2632;51.666;7.146;2022-11-24T05:07:23;1.10;;;0.60;;
5225;SDS011;2632;51.666;7.146;2022-11-24T05:09:49;1.80;;;0.70;;
5225;SDS011;2632;51.666;7.146;2022-11-24T05:12:35;1.67;;;1.00;;
5225;SDS011;2632;51.666;7.146;2022-11-24T05:15:02;3.57;;;0.80;;
5225;SDS011;2632;51.666;7.146;2022-11-24T05:17:30;1.67;;;0.90;;
5225;SDS011;2632;51.666;7.146;2022-11-24T05:19:58;0.97;;;0.63;;
5225;SDS011;2632;51.666;7.146;2022-11-24T05:22:27;1.50;;;0.73;;
5225;SDS011;2632;51.666;7.146;2022-11-24T05:24:54;4.57;;;0.80;;
5225;SDS011;2632;51.666;7.146;2022-11-24T05:27:21;7.00;;;0.90;;
5225;SDS011;2632;51.666;7.146;2022-11-24T05:29:47;3.20;;;0.97;;
5225;SDS011;2632;51.666;7.146;2022-11-24T05:32:14;0.90;;;0.70;;
5225;SDS011;2632;51.666;7.146;2022-11-24T05:34:41;1.00;;;0.60;;
5225;SDS011;2632;51.666;7.146;2022-11-24T05:37:08;1.60;;;0.90;;
5225;SDS011;2632;51.666;7.146;2022-11-24T05:39:35;2.00;;;0.80;;
5225;SDS011;2632;51.666;7.146;2022-11-24T05:42:02;1.10;;;0.70;;
5225;SDS011;2632;51.666;7.146;2022-11-24T05:44:51;2.60;;;0.70;;
5225;SDS011;2632;51.666;7.146;2022-11-24T05:47:18;1.67;;;0.70;;
5225;SDS011;2632;51.666;7.146;2022-11-24T05:49:45;3.37;;;0.90;;
5225;SDS011;2632;51.666;7.146;2022-11-24T05:52:12;2.50;;;0.80;;
5225;SDS011;2632;51.666;7.146;2022-11-24T05:54:39;2.23;;;0.87;;
5225;SDS011;2632;51.666;7.146;2022-11-24T05:57:05;1.97;;;0.73;;
5225;SDS011;2632;51.666;7.146;2022-11-24T05:59:32;1.87;;;0.67;;
5225;SDS011;2632;51.666;7.146;2022-11-24T06:01:59;2.10;;;0.70;;
5225;SDS011;2632;51.666;7.146;2022-11-24T06:04:26;1.90;;;0.90;;
5225;SDS011;2632;51.666;7.146;2022-11-24T06:06:52;1.20;;;0.60;;
5225;SDS011;2632;51.666;7.146;2022-11-24T06:09:19;3.10;;;0.73;;
5225;SDS011;2632;51.666;7.146;2022-11-24T06:11:46;2.30;;;0.83;;
5225;SDS011;2632;51.666;7.146;2022-11-24T06:14:13;3.00;;;0.80;;
5225;SDS011;2632;51.666;7.146;2022-11-24T06:16:40;6.50;;;1.33;;
5225;SDS011;2632;51.666;7.146;2022-11-24T06:19:07;2.10;;;0.90;;
5225;SDS011;2632;51.666;7.146;2022-11-24T06:21:35;3.13;;;0.90;;
5225;SDS011;2632;51.666;7.146;2022-11-24T06:24:02;1.40;;;0.63;;
5225;SDS011;2632;51.666;7.146;2022-11-24T06:26:29;2.30;;;0.70;;
5225;SDS011;2632;51.666;7.146;2022-11-24T06:28:56;2.20;;;0.63;;
5225;SDS011;2632;51.666;7.146;2022-11-24T06:31:23;1.03;;;0.60;;
5225;SDS011;2632;51.666;7.146;2022-11-24T06:33:49;3.07;;;0.77;;
5225;SDS011;2632;51.666;7.146;2022-11-24T06:36:16;2.50;;;0.90;;
5225;SDS011;2632;51.666;7.146;2022-11-24T06:38:43;2.37;;;0.97;;
5225;SDS011;2632;51.666;7.146;2022-11-24T06:41:13;3.13;;;0.83;;
5225;SDS011;2632;51.666;7.146;2022-11-24T06:43:41;1.63;;;0.60;;
5225;SDS011;2632;51.666;7.146;2022-11-24T06:46:08;1.70;;;0.70;;
5225;SDS011;2632;51.666;7.146;2022-11-24T06:48:35;2.17;;;0.70;;
5225;SDS011;2632;51.666;7.146;2022-11-24T06:51:04;3.87;;;0.77;;
5225;SDS011;2632;51.666;7.146;2022-11-24T06:53:33;5.70;;;1.20;;
5225;SDS011;2632;51.666;7.146;2022-11-24T06:56:07;1.57;;;0.77;;
5225;SDS011;2632;51.666;7.146;2022-11-24T06:58:42;1.47;;;0.67;;
5225;SDS011;2632;51.666;7.146;2022-11-24T07:01:17;1.63;;;0.60;;
5225;SDS011;2632;51.666;7.146;2022-11-24T07:03:45;7.20;;;1.40;;
5225;SDS011;2632;51.666;7.146;2022-11-24T07:06:13;1.40;;;0.70;;
5225;SDS011;2632;51.666;7.146;2022-11-24T07:08:40;1.20;;;0.60;;
5225;SDS011;2632;51.666;7.146;2022-11-24T07:11:08;2.30;;;0.70;;
5225;SDS011;2632;51.666;7.146;2022-11-24T07:13:37;4.33;;;1.00;;
5225;SDS011;2632;51.666;7.146;2022-11-24T07:16:13;2.40;;;1.03;;
5225;SDS011;2632;51.666;7.146;2022-11-24T07:18:41;2.63;;;1.13;;
5225;SDS011;2632;51.666;7.146;2022-11-24T07:21:09;4.03;;;1.00;;
5225;SDS011;2632;51.666;7.146;2022-11-24T07:23:36;4.90;;;0.80;;
5225;SDS011;2632;51.666;7.146;2022-11-24T07:26:03;3.67;;;1.00;;
5225;SDS011;2632;51.666;7.146;2022-11-24T07:28:33;8.57;;;0.70;;
5225;SDS011;2632;51.666;7.146;2022-11-24T07:31:09;3.30;;;0.70;;
5225;SDS011;2632;51.666;7.146;2022-11-24T07:33:50;1.17;;;0.67;;
5225;SDS011;2632;51.666;7.146;2022-11-24T07:36:18;3.70;;;0.80;;
5225;SDS011;2632;51.666;7.146;2022-11-24T07:38:46;5.03;;;0.80;;
5225;SDS011;2632;51.666;7.146;2022-11-24T07:41:13;1.70;;;0.73;;
5225;SDS011;2632;51.666;7.146;2022-11-24T07:43:40;2.67;;;0.80;;
5225;SDS011;2632;51.666;7.146;2022-11-24T07:46:09;1.73;;;0.77;;
5225;SDS011;2632;51.666;7.146;2022-11-24T07:48:37;1.53;;;0.60;;
5225;SDS011;2632;51.666;7.146;2022-11-24T07:51:04;3.33;;;1.00;;
5225;SDS011;2632;51.666;7.146;2022-11-24T07:53:31;3.00;;;1.07;;
5225;SDS011;2632;51.666;7.146;2022-11-24T07:55:59;2.73;;;1.20;;
5225;SDS011;2632;51.666;7.146;2022-11-24T07:58:28;1.87;;;0.90;;
5225;SDS011;2632;51.666;7.146;2022-11-24T08:00:58;4.80;;;1.00;;
5225;SDS011;2632;51.666;7.146;2022-11-24T08:03:25;1.07;;;0.60;;
5225;SDS011;2632;51.666;7.146;2022-11-24T08:05:53;3.40;;;0.80;;
5225;SDS011;2632;51.666;7.146;2022-11-24T08:08:44;1.87;;;0.53;;
5225;SDS011;2632;51.666;7.146;2022-11-24T08:11:15;1.53;;;0.60;;
5225;SDS011;2632;51.666;7.146;2022-11-24T08:13:43;0.87;;;0.53;;
5225;SDS011;2632;51.666;7.146;2022-11-24T08:16:11;1.70;;;0.87;;
5225;SDS011;2632;51.666;7.146;2022-11-24T08:18:39;1.80;;;0.60;;
5225;SDS011;2632;51.666;7.146;2022-11-24T08:21:07;3.07;;;1.10;;
5225;SDS011;2632;51.666;7.146;2022-11-24T08:23:38;1.97;;;0.80;;
5225;SDS011;2632;51.666;7.146;2022-11-24T08:26:05;3.20;;;0.77;;
5225;SDS011;2632;51.666;7.146;2022-11-24T08:28:34;2.80;;;0.63;;
5225;SDS011;2632;51.666;7.146;2022-11-24T08:31:05;1.53;;;0.70;;
5225;SDS011;2632;51.666;7.146;2022-11-24T08:33:34;1.50;;;0.90;;
5225;SDS011;2632;51.666;7.146;2022-11-24T08:36:02;0.90;;;0.70;;
5225;SDS011;2632;51.666;7.146;2022-11-24T08:38:33;2.30;;;0.70;;
5225;SDS011;2632;51.666;7.146;2022-11-24T08:41:01;2.77;;;0.90;;
5225;SDS011;2632;51.666;7.146;2022-11-24T08:43:28;1.43;;;0.87;;
5225;SDS011;2632;51.666;7.146;2022-11-24T08:45:58;0.93;;;0.80;;
5225;SDS011;2632;51.666;7.146;2022-11-24T08:48:26;1.50;;;0.73;;
5225;SDS011;2632;51.666;7.146;2022-11-24T08:50:53;0.93;;;0.53;;
5225;SDS011;2632;51.666;7.146;2022-11-24T08:53:20;3.07;;;0.57;;
5225;SDS011;2632;51.666;7.146;2022-11-24T08:55:47;2.23;;;0.70;;
5225;SDS011;2632;51.666;7.146;2022-11-24T08:58:14;2.00;;;0.90;;
5225;SDS011;2632;51.666;7.146;2022-11-24T09:00:41;2.30;;;0.87;;
5225;SDS011;2632;51.666;7.146;2022-11-24T09:03:09;3.53;;;0.73;;
5225;SDS011;2632;51.666;7.146;2022-11-24T09:05:37;2.10;;;0.70;;
5225;SDS011;2632;51.666;7.146;2022-11-24T09:08:19;4.03;;;0.70;;
5225;SDS011;2632;51.666;7.146;2022-11-24T09:10:45;2.80;;;0.70;;
5225;SDS011;2632;51.666;7.146;2022-11-24T09:13:12;3.63;;;1.20;;
5225;SDS011;2632;51.666;7.146;2022-11-24T09:15:39;3.70;;;0.83;;
5225;SDS011;2632;51.666;7.146;2022-11-24T09:18:05;7.20;;;0.87;;
5225;SDS011;2632;51.666;7.146;2022-11-24T09:20:32;2.63;;;1.13;;
5225;SDS011;2632;51.666;7.146;2022-11-24T09:22:59;1.73;;;0.60;;
5225;SDS011;2632;51.666;7.146;2022-11-24T09:25:25;5.30;;;0.83;;
5225;SDS011;2632;51.666;7.146;2022-11-24T09:27:52;2.00;;;1.00;;
5225;SDS011;2632;51.666;7.146;2022-11-24T09:30:19;5.90;;;1.00;;
5225;SDS011;2632;51.666;7.146;2022-11-24T09:32:46;3.03;;;1.20;;
5225;SDS011;2632;51.666;7.146;2022-11-24T09:35:13;5.00;;;1.20;;
5225;SDS011;2632;51.666;7.146;2022-11-24T09:37:39;3.67;;;1.17;;
5225;SDS011;2632;51.666;7.146;2022-11-24T09:40:10;2.87;;;0.77;;
5225;SDS011;2632;51.666;7.146;2022-11-24T09:42:58;7.93;;;1.10;;
5225;SDS011;2632;51.666;7.146;2022-11-24T09:48:29;3.37;;;1.00;;
5225;SDS011;2632;51.666;7.146;2022-11-24T09:51:01;3.97;;;1.40;;
5225;SDS011;2632;51.666;7.146;2022-11-24T09:55:58;5.33;;;1.10;;
5225;SDS011;2632;51.666;7.146;2022-11-24T09:58:42;6.40;;;1.57;;
5225;SDS011;2632;51.666;7.146;2022-11-24T10:01:47;2.83;;;1.23;;
5225;SDS011;2632;51.666;7.146;2022-11-24T10:09:23;2.93;;;0.80;;
5225;SDS011;2632;51.666;7.146;2022-11-24T10:23:28;2.53;;;1.10;;
5225;SDS011;2632;51.666;7.146;2022-11-24T10:26:17;5.60;;;1.63;;
5225;SDS011;2632;51.666;7.146;2022-11-24T10:29:47;3.93;;;1.13;;
5225;SDS011;2632;51.666;7.146;2022-11-24T10:31:59;3.80;;;1.07;;
5225;SDS011;2632;51.666;7.146;2022-11-24T10:34:36;4.20;;;1.10;;
5225;SDS011;2632;51.666;7.146;2022-11-24T10:42:34;5.13;;;1.10;;
5225;SDS011;2632;51.666;7.146;2022-11-24T10:47:32;5.80;;;1.00;;
5225;SDS011;2632;51.666;7.146;2022-11-24T10:50:03;8.30;;;7.70;;
5225;SDS011;2632;51.666;7.146;2022-11-24T10:52:37;9.50;;;8.60;;
5225;SDS011;2632;51.666;7.146;2022-11-24T10:55:06;8.70;;;7.90;;
5225;SDS011;2632;51.666;7.146;2022-11-24T10:57:34;8.47;;;7.87;;
5225;SDS011;2632;51.666;7.146;2022-11-24T11:00:44;2.20;;;1.00;;
5225;SDS011;2632;51.666;7.146;2022-11-24T11:03:19;5.10;;;4.80;;
5225;SDS011;2632;51.666;7.146;2022-11-24T11:05:47;7.73;;;1.00;;
5225;SDS011;2632;51.666;7.146;2022-11-24T11:08:22;5.57;;;1.57;;
5225;SDS011;2632;51.666;7.146;2022-11-24T11:10:49;1.80;;;0.90;;
5225;SDS011;2632;51.666;7.146;2022-11-24T11:13:36;4.90;;;4.50;;
5225;SDS011;2632;51.666;7.146;2022-11-24T11:16:12;6.87;;;1.20;;
5225;SDS011;2632;51.666;7.146;2022-11-24T11:18:48;3.53;;;0.90;;
5225;SDS011;2632;51.666;7.146;2022-11-24T11:21:26;2.00;;;1.40;;
5225;SDS011;2632;51.666;7.146;2022-11-24T11:24:03;5.20;;;0.97;;
5225;SDS011;2632;51.666;7.146;2022-11-24T11:26:38;6.50;;;1.37;;
5225;SDS011;2632;51.666;7.146;2022-11-24T11:32:01;9.87;;;1.47;;
5225;SDS011;2632;51.666;7.146;2022-11-24T11:34:49;11.73;;;1.10;;
5225;SDS011;2632;51.666;7.146;2022-11-24T11:37:18;2.90;;;1.00;;
5225;SDS011;2632;51.666;7.146;2022-11-24T11:39:47;2.87;;;0.63;;
5225;SDS011;2632;51.666;7.146;2022-11-24T11:45:22;3.37;;;0.70;;
5225;SDS011;2632;51.666;7.146;2022-11-24T11:47:56;3.17;;;1.30;;
5225;SDS011;2632;51.666;7.146;2022-11-24T11:53:52;3.07;;;1.30;;
5225;SDS011;2632;51.666;7.146;2022-11-24T11:56:32;3.43;;;1.13;;
5225;SDS011;2632;51.666;7.146;2022-11-24T11:59:15;4.43;;;0.90;;
5225;SDS011;2632;51.666;7.146;2022-11-24T12:04:52;1.73;;;0.60;;
5225;SDS011;2632;51.666;7.146;2022-11-24T12:07:40;5.53;;;0.60;;
5225;SDS011;2632;51.666;7.146;2022-11-24T12:13:02;12.90;;;3.40;;
5225;SDS011;2632;51.666;7.146;2022-11-24T12:15:57;2.93;;;0.90;;
5225;SDS011;2632;51.666;7.146;2022-11-24T12:18:41;4.17;;;1.70;;
5225;SDS011;2632;51.666;7.146;2022-11-24T12:29:12;3.80;;;1.00;;
5225;SDS011;2632;51.666;7.146;2022-11-24T12:34:54;6.83;;;1.37;;
5225;SDS011;2632;51.666;7.146;2022-11-24T12:37:38;6.50;;;1.40;;
5225;SDS011;2632;51.666;7.146;2022-11-24T12:42:50;4.10;;;0.93;;
5225;SDS011;2632;51.666;7.146;2022-11-24T12:45:41;4.17;;;1.23;;
5225;SDS011;2632;51.666;7.146;2022-11-24T12:48:47;5.53;;;1.20;;
5225;SDS011;2632;51.666;7.146;2022-11-24T12:51:38;2.00;;;0.73;;
5225;SDS011;2632;51.666;7.146;2022-11-24T12:54:09;5.07;;;1.20;;
5225;SDS011;2632;51.666;7.146;2022-11-24T12:56:42;2.37;;;0.83;;
5225;SDS011;2632;51.666;7.146;2022-11-24T13:05:06;2.13;;;1.20;;
5225;SDS011;2632;51.666;7.146;2022-11-24T13:07:48;8.87;;;1.50;;
5225;SDS011;2632;51.666;7.146;2022-11-24T13:10:28;2.37;;;0.93;;
5225;SDS011;2632;51.666;7.146;2022-11-24T13:13:19;1.10;;;0.63;;
5225;SDS011;2632;51.666;7.146;2022-11-24T13:18:57;4.10;;;1.17;;
5225;SDS011;2632;51.666;7.146;2022-11-24T13:21:44;2.30;;;0.80;;
5225;SDS011;2632;51.666;7.146;2022-11-24T13:24:32;5.67;;;1.37;;
5225;SDS011;2632;51.666;7.146;2022-11-24T13:29:45;2.90;;;1.70;;
5225;SDS011;2632;51.666;7.146;2022-11-24T13:40:01;4.67;;;1.20;;
5225;SDS011;2632;51.666;7.146;2022-11-24T13:53:30;7.17;;;1.00;;
5225;SDS011;2632;51.666;7.146;2022-11-24T14:01:23;5.97;;;3.30;;
5225;SDS011;2632;51.666;7.146;2022-11-24T14:06:59;2.73;;;1.43;;
5225;SDS011;2632;51.666;7.146;2022-11-24T14:09:44;3.50;;;0.80;;
5225;SDS011;2632;51.666;7.146;2022-11-24T14:14:46;3.30;;;1.00;;
5225;SDS011;2632;51.666;7.146;2022-11-24T14:17:19;1.87;;;1.20;;
5225;SDS011;2632;51.666;7.146;2022-11-24T14:19:54;7.30;;;1.07;;
5225;SDS011;2632;51.666;7.146;2022-11-24T14:24:51;11.80;;;1.20;;
5225;SDS011;2632;51.666;7.146;2022-11-24T14:27:22;4.80;;;1.20;;
5225;SDS011;2632;51.666;7.146;2022-11-24T14:33:11;4.23;;;1.47;;
5225;SDS011;2632;51.666;7.146;2022-11-24T14:35:42;8.50;;;1.43;;
5225;SDS011;2632;51.666;7.146;2022-11-24T14:38:11;5.00;;;1.27;;
5225;SDS011;2632;51.666;7.146;2022-11-24T14:43:17;12.57;;;8.93;;
5225;SDS011;2632;51.666;7.146;2022-11-24T14:45:57;12.87;;;8.60;;
5225;SDS011;2632;51.666;7.146;2022-11-24T14:48:27;12.93;;;9.23;;
5225;SDS011;2632;51.666;7.146;2022-11-24T14:53:57;11.00;;;8.10;;
5225;SDS011;2632;51.666;7.146;2022-11-24T14:56:27;14.97;;;8.60;;
5225;SDS011;2632;51.666;7.146;2022-11-24T14:58:57;15.67;;;9.80;;
5225;SDS011;2632;51.666;7.146;2022-11-24T15:07:13;14.10;;;8.53;;
5225;SDS011;2632;51.666;7.146;2022-11-24T15:10:00;12.40;;;8.60;;
5225;SDS011;2632;51.666;7.146;2022-11-24T15:12:30;11.60;;;9.13;;
5225;SDS011;2632;51.666;7.146;2022-11-24T15:17:46;11.33;;;4.90;;
5225;SDS011;2632;51.666;7.146;2022-11-24T15:23:19;7.83;;;1.80;;
5225;SDS011;2632;51.666;7.146;2022-11-24T15:25:53;3.97;;;1.60;;
5225;SDS011;2632;51.666;7.146;2022-11-24T15:28:21;4.60;;;1.67;;
5225;SDS011;2632;51.666;7.146;2022-11-24T15:30:52;10.10;;;8.57;;
5225;SDS011;2632;51.666;7.146;2022-11-24T15:33:20;9.40;;;4.43;;
5225;SDS011;2632;51.666;7.146;2022-11-24T15:35:48;9.73;;;2.23;;
5225;SDS011;2632;51.666;7.146;2022-11-24T15:38:15;9.70;;;3.03;;
5225;SDS011;2632;51.666;7.146;2022-11-24T15:40:43;6.17;;;1.73;;
5225;SDS011;2632;51.666;7.146;2022-11-24T15:43:30;6.30;;;1.87;;
5225;SDS011;2632;51.666;7.146;2022-11-24T15:45:59;12.23;;;2.33;;
5225;SDS011;2632;51.666;7.146;2022-11-24T15:48:26;7.17;;;1.67;;
5225;SDS011;2632;51.666;7.146;2022-11-24T15:50:54;10.97;;;2.00;;
5225;SDS011;2632;51.666;7.146;2022-11-24T15:53:23;5.40;;;1.40;;
5225;SDS011;2632;51.666;7.146;2022-11-24T15:55:56;3.90;;;1.97;;
5225;SDS011;2632;51.666;7.146;2022-11-24T15:58:25;6.83;;;1.37;;
5225;SDS011;2632;51.666;7.146;2022-11-24T16:00:52;8.17;;;1.57;;
5225;SDS011;2632;51.666;7.146;2022-11-24T16:03:19;2.93;;;1.27;;
5225;SDS011;2632;51.666;7.146;2022-11-24T16:06:07;4.90;;;1.50;;
5225;SDS011;2632;51.666;7.146;2022-11-24T16:08:44;3.67;;;1.40;;
5225;SDS011;2632;51.666;7.146;2022-11-24T16:11:11;4.10;;;1.37;;
5225;SDS011;2632;51.666;7.146;2022-11-24T16:13:38;5.83;;;1.53;;
5225;SDS011;2632;51.666;7.146;2022-11-24T16:16:05;11.23;;;9.50;;
5225;SDS011;2632;51.666;7.146;2022-11-24T16:18:32;11.77;;;8.80;;
5225;SDS011;2632;51.666;7.146;2022-11-24T16:21:00;7.77;;;7.13;;
5225;SDS011;2632;51.666;7.146;2022-11-24T16:23:27;8.23;;;7.63;;
5225;SDS011;2632;51.666;7.146;2022-11-24T16:25:54;3.47;;;1.57;;
5225;SDS011;2632;51.666;7.146;2022-11-24T16:28:21;4.40;;;1.27;;
5225;SDS011;2632;51.666;7.146;2022-11-24T16:30:49;6.00;;;1.63;;
5225;SDS011;2632;51.666;7.146;2022-11-24T16:33:18;3.60;;;1.07;;
5225;SDS011;2632;51.666;7.146;2022-11-24T16:35:45;4.17;;;1.30;;
5225;SDS011;2632;51.666;7.146;2022-11-24T16:38:16;5.10;;;1.77;;
5225;SDS011;2632;51.666;7.146;2022-11-24T16:40:44;1.73;;;1.10;;
5225;SDS011;2632;51.666;7.146;2022-11-24T16:43:16;6.10;;;1.10;;
5225;SDS011;2632;51.666;7.146;2022-11-24T16:45:43;4.90;;;1.70;;
5225;SDS011;2632;51.666;7.146;2022-11-24T16:48:10;4.50;;;1.30;;
5225;SDS011;2632;51.666;7.146;2022-11-24T16:50:37;2.10;;;1.00;;
5225;SDS011;2632;51.666;7.146;2022-11-24T16:53:04;6.73;;;1.37;;
5225;SDS011;2632;51.666;7.146;2022-11-24T16:55:31;3.03;;;1.10;;
5225;SDS011;2632;51.666;7.146;2022-11-24T16:57:57;3.00;;;1.40;;
5225;SDS011;2632;51.666;7.146;2022-11-24T17:00:24;6.70;;;1.10;;
5225;SDS011;2632;51.666;7.146;2022-11-24T17:02:50;4.27;;;1.40;;
5225;SDS011;2632;51.666;7.146;2022-11-24T17:05:17;4.00;;;1.30;;
5225;SDS011;2632;51.666;7.146;2022-11-24T17:07:44;6.37;;;3.20;;
5225;SDS011;2632;51.666;7.146;2022-11-24T17:10:10;3.80;;;1.60;;
5225;SDS011;2632;51.666;7.146;2022-11-24T17:12:37;3.23;;;1.23;;
5225;SDS011;2632;51.666;7.146;2022-11-24T17:15:05;6.40;;;1.43;;
5225;SDS011;2632;51.666;7.146;2022-11-24T17:17:55;3.53;;;1.43;;
5225;SDS011;2632;51.666;7.146;2022-11-24T17:20:42;1.80;;;1.03;;
5225;SDS011;2632;51.666;7.146;2022-11-24T17:23:08;4.13;;;1.63;;
5225;SDS011;2632;51.666;7.146;2022-11-24T17:25:35;4.33;;;1.43;;
5225;SDS011;2632;51.666;7.146;2022-11-24T17:28:02;4.13;;;1.43;;
5225;SDS011;2632;51.666;7.146;2022-11-24T17:30:28;3.20;;;0.93;;
5225;SDS011;2632;51.666;7.146;2022-11-24T17:32:55;3.10;;;1.43;;
5225;SDS011;2632;51.666;7.146;2022-11-24T17:35:22;3.17;;;1.33;;
5225;SDS011;2632;51.666;7.146;2022-11-24T17:37:48;3.60;;;1.20;;
5225;SDS011;2632;51.666;7.146;2022-11-24T17:40:15;3.73;;;0.90;;